Share

Agana,

Perezville (KGUTAMUN1) Elev 120 ft | 13.50 °N, 144.78 °E | Change Station

Current weather conditions updated 4 minutes ago

Mostly Cloudy
Mostly Cloudy
81.0 °F
Feels Like 88 °F
N
4.0
Wind Variable Wind from ENE
Gusts 7.0 mph
Sunrise 6:05 AM
Sunset 6:34 PM
Moon Waning Gibbous

Today is forecast to be Cooler than yesterday. Showers and thunderstorms.

Pressure 29.81 in
Visibility 10.0 miles
Clouds Mostly Cloudy 1000 ft
Heat Index 88 °F
Dew Point 77 °F
Humidity 89%
Rainfall 0.00 in
Snow Depth Not available.
UV 0.0 out of 16
Pollen Not available.
Air Quality Not available.
Flu Activity Not available.
METAR PGUA 181558Z 07006KT 10SM BKN010 26/25 A2983 RMK AO2 SLP092 TSNO $

More Conditions Fewer Conditions

Pressure 29.81 in
Visibility 10.0 miles
Clouds Mostly Cloudy 1000 ft
Heat Index 88 °F
Dew Point 77 °F
Humidity 89%
Rainfall 0.00 in
Snow Depth Not available.
UV 0.0 out of 16
Pollen Not available.
Air Quality Not available.
Flu Activity Not available.
METAR PGUA 181558Z 07006KT 10SM BKN010 26/25 A2983 RMK AO2 SLP092 TSNO $

More Conditions Fewer Conditions

10-Day Forecast

Almanac

Astronomy

Apr. 19, 2014 Rise Set
Actual Time 6:05 AM ChST 6:34 PM ChST
Civil Twilight 5:43 AM ChST 6:56 PM ChST
Nautical Twilight 5:18 AM ChST 7:21 PM ChST
Astronomical Twilight 4:52 AM ChST 7:47 PM ChST
Moon 10:17 PM ChST (4/19) 9:08 AM ChST (4/19)
Length of Visible Light 13h 12m
Length of Day
12h 28m
Tomorrow will be 0m 43s longer.
Waning Gibbous, 87% of the Moon is Illuminated
Apr 18
Waning Gibbous
Apr 22
Last Quarter
Apr 29
New
May 6
First Quarter
May 14
Full

Community

  • What's for Lunch?
    What's for Lunch?
  • SUNRISE THROUGH THE TREES.
    SUNRISE THROUGH THE TREES.
  • Dog Wood Blossoms
    Dog Wood Blossoms
  • Morning Light
    Morning Light
  • New Day
    New Day

WunderPhotos

Upload Photos

1,702,407 photos uploaded!

Nearby

Snow Depth

Not available.

Coastal Water Temperatures

Place Temperature
No Stations Reporting

Earthquake Activity

City Distance Mag. Time & Date
No recent earthquake activity has been reported nearby.
Minimum magnitude displayed is 2.5.

Nearby Weather Stations

Station Location Temp. Heat Index Dew Point Humidity Wind Precip. Elev Updated Type
Perezville, Tamuning, Guam 81.0 °F 88 °F 77 °F 89% ENE  at  4.0 mph 0.00 in / hr 120 ft 2:35 AM ChST Normal
Mangilao, Mangilao, GU 79.3 °F 83 °F 74 °F 84% ENE  at  4.0 mph 0.00 in / hr 361 ft 2:40 AM ChST Rapid Fire
Maite, Maite, GU 80.8 °F 88 °F 78 °F 92% SE  at  4.0 mph 0.00 in / hr 140 ft 2:40 AM ChST Rapid Fire
Ordot Dump, Guam 78.6 °F 82 °F 78 °F 98% East  at  0.0 mph 0.00 in / hr 282 ft 2:39 AM ChST Rapid Fire
Jeffs Pirates Cove, Guam, Ipan Talofofo, GU 82.5 °F 93 °F 79 °F 90% ENE  at  11.0 mph 0.00 in / hr 27 ft 2:40 AM ChST Rapid Fire

Show More Stations Show Fewer Stations

What do you think?

We're not finished. Please let us know what you like, what you don't like, and what you are still missing.